Time;durP1;ratioP1;P1;durP2;ratioP2;P2;SDS_P1;SDS_P2;PMS_P1;PMS_P2;Temp;Humidity;BMP_temperature;BMP_pressure;BME280_temperature;BME280_humidity;BME280_pressure;Samples;Min_cycle;Max_cycle;Signal;HPM_P1;HPM_P2
2022/07/08 00:01:55;;;;;;;9.10;1.40;;;16.50;99.90;;;;;;5034963;28;20457;-70
2022/07/08 00:04:22;;;;;;;4.80;1.47;;;16.60;99.90;;;;;;5033289;28;20664;-70
2022/07/08 00:06:49;;;;;;;7.70;2.20;;;16.80;99.90;;;;;;5034690;28;20459;-69
2022/07/08 00:09:16;;;;;;;3.83;1.20;;;16.80;99.90;;;;;;5037994;28;20482;-69
2022/07/08 00:11:43;;;;;;;3.47;1.30;;;16.80;99.90;;;;;;5036113;28;20977;-69
2022/07/08 00:14:12;;;;;;;5.13;1.30;;;16.80;99.90;;;;;;5033069;28;20479;-69
2022/07/08 00:16:40;;;;;;;2.80;1.47;;;16.90;99.90;;;;;;5026342;28;20755;-69
2022/07/08 00:19:07;;;;;;;1.40;1.23;;;16.70;99.90;;;;;;5036385;28;20552;-69
2022/07/08 00:21:34;;;;;;;3.10;1.33;;;16.70;99.90;;;;;;5035549;28;20460;-69
2022/07/08 00:24:01;;;;;;;1.77;1.30;;;16.80;99.90;;;;;;5038539;28;21568;-69
2022/07/08 00:26:28;;;;;;;4.70;1.30;;;16.70;99.90;;;;;;5038278;28;20484;-69
2022/07/08 00:28:55;;;;;;;2.33;1.23;;;16.70;99.90;;;;;;5037049;28;20875;-69
2022/07/08 00:31:23;;;;;;;4.03;1.33;;;16.70;99.90;;;;;;5037011;28;20464;-69
2022/07/08 00:33:50;;;;;;;2.23;1.47;;;16.50;99.90;;;;;;5041954;28;20505;-69
2022/07/08 00:36:17;;;;;;;2.40;1.40;;;16.50;99.90;;;;;;5036749;28;22452;-69
2022/07/08 00:38:44;;;;;;;3.73;1.43;;;16.50;99.90;;;;;;5041676;28;20944;-69
2022/07/08 00:41:11;;;;;;;2.67;1.37;;;16.50;99.90;;;;;;5037258;28;20653;-69
2022/07/08 00:43:40;;;;;;;1.80;1.70;;;16.60;99.90;;;;;;5033175;28;20471;-69
2022/07/08 00:46:07;;;;;;;3.73;1.50;;;16.50;99.90;;;;;;5033144;28;20862;-69
2022/07/08 00:48:36;;;;;;;3.70;1.40;;;16.60;99.90;;;;;;5037712;28;20461;-69
2022/07/08 00:51:06;;;;;;;2.07;1.40;;;16.60;99.90;;;;;;5028243;28;20554;-69
2022/07/08 00:53:35;;;;;;;4.33;1.50;;;16.50;99.90;;;;;;5037932;28;20461;-69
2022/07/08 00:56:03;;;;;;;2.00;1.50;;;16.40;99.90;;;;;;5036531;28;20996;-70
2022/07/08 00:58:32;;;;;;;4.93;1.60;;;16.40;99.90;;;;;;5036279;28;20452;-69
2022/07/08 01:00:59;;;;;;;3.00;1.33;;;16.40;99.90;;;;;;5033541;28;20555;-68
2022/07/08 01:03:25;;;;;;;6.10;1.70;;;16.30;99.90;;;;;;5033572;28;20976;-70
2022/07/08 01:05:54;;;;;;;4.40;1.30;;;16.30;99.90;;;;;;5036162;28;20481;-70
2022/07/08 01:08:21;;;;;;;4.20;1.40;;;16.20;99.90;;;;;;5031606;28;20829;-70
2022/07/08 01:10:48;;;;;;;3.70;1.07;;;16.40;99.90;;;;;;5034563;28;20530;-68
2022/07/08 01:13:15;;;;;;;2.13;1.40;;;16.30;99.90;;;;;;5029479;28;20830;-69
2022/07/08 01:15:43;;;;;;;5.30;1.53;;;16.40;99.90;;;;;;5033552;28;20460;-71
2022/07/08 01:18:10;;;;;;;7.53;1.33;;;16.40;99.90;;;;;;5030078;28;20850;-70
2022/07/08 01:20:41;;;;;;;4.73;2.23;;;16.40;99.90;;;;;;5034546;28;20471;-70
2022/07/08 01:23:08;;;;;;;3.20;1.30;;;16.40;99.90;;;;;;5036155;28;20471;-69
2022/07/08 01:25:35;;;;;;;5.83;1.40;;;16.40;99.90;;;;;;5033323;28;20866;-69
2022/07/08 01:28:02;;;;;;;1.97;1.40;;;16.50;99.90;;;;;;5025879;28;20464;-71
2022/07/08 01:30:28;;;;;;;3.83;1.60;;;16.60;99.90;;;;;;5034413;28;20554;-70
2022/07/08 01:32:55;;;;;;;3.47;1.50;;;16.60;99.90;;;;;;5032783;28;20816;-69
2022/07/08 01:35:22;;;;;;;6.30;1.57;;;16.60;99.90;;;;;;5033549;28;20463;-70
2022/07/08 01:37:50;;;;;;;4.83;1.50;;;16.70;99.90;;;;;;5034364;28;20488;-73
2022/07/08 01:40:17;;;;;;;2.43;1.37;;;16.60;99.90;;;;;;5034647;28;20456;-70
2022/07/08 01:42:44;;;;;;;5.97;1.67;;;16.50;99.90;;;;;;5030840;28;20557;-71
2022/07/08 01:45:11;;;;;;;8.53;1.80;;;16.60;99.90;;;;;;5031898;28;20483;-70
2022/07/08 01:47:38;;;;;;;2.93;1.70;;;16.60;99.90;;;;;;5034365;28;20460;-69
2022/07/08 01:50:06;;;;;;;3.83;1.47;;;16.40;99.90;;;;;;5033912;28;21224;-69
2022/07/08 01:52:33;;;;;;;5.97;1.57;;;16.40;99.90;;;;;;5031673;28;20548;-69
2022/07/08 01:55:01;;;;;;;2.80;1.73;;;16.40;99.90;;;;;;5030292;28;20472;-70
2022/07/08 01:57:28;;;;;;;2.50;1.27;;;16.30;99.90;;;;;;5036411;28;20472;-70
2022/07/08 01:59:55;;;;;;;2.97;1.80;;;16.40;99.90;;;;;;5030120;28;21008;-71
2022/07/08 02:02:22;;;;;;;4.67;1.60;;;16.50;99.90;;;;;;5029307;28;20953;-69
2022/07/08 02:04:50;;;;;;;6.63;1.87;;;16.50;99.90;;;;;;5041465;28;21000;-70
2022/07/08 02:07:17;;;;;;;9.10;1.50;;;16.50;99.90;;;;;;5034828;28;20482;-69
2022/07/08 02:09:44;;;;;;;5.33;1.97;;;16.60;99.90;;;;;;5040291;28;20495;-70
2022/07/08 02:12:20;;;;;;;3.10;1.50;;;16.60;99.90;;;;;;5030847;28;20459;-69
2022/07/08 02:14:47;;;;;;;2.00;1.20;;;16.50;99.90;;;;;;5030748;28;20863;-68
2022/07/08 02:17:14;;;;;;;4.80;1.30;;;16.50;99.90;;;;;;5031826;28;20456;-68
2022/07/08 02:19:42;;;;;;;5.00;1.37;;;16.40;99.90;;;;;;5031895;28;20883;-69
2022/07/08 02:22:09;;;;;;;3.00;1.37;;;16.30;99.90;;;;;;5038484;28;20875;-68
2022/07/08 02:24:37;;;;;;;2.37;1.67;;;16.20;99.90;;;;;;5033705;28;20869;-69
2022/07/08 02:27:04;;;;;;;2.90;2.00;;;16.10;99.90;;;;;;5036217;28;20485;-69
2022/07/08 02:29:33;;;;;;;3.23;2.93;;;16.20;99.90;;;;;;5034041;28;20465;-68
2022/07/08 02:32:01;;;;;;;1.40;1.30;;;16.20;99.90;;;;;;5036794;28;20561;-68
2022/07/08 02:34:28;;;;;;;4.80;1.30;;;16.20;99.90;;;;;;5031244;28;21250;-68
2022/07/08 02:36:55;;;;;;;6.90;2.13;;;16.20;99.90;;;;;;5035003;28;20437;-68
2022/07/08 02:39:22;;;;;;;3.67;1.70;;;16.20;99.90;;;;;;5036502;28;20467;-68
2022/07/08 02:41:49;;;;;;;4.63;1.77;;;16.10;99.90;;;;;;5040389;28;20437;-68
2022/07/08 02:44:17;;;;;;;5.40;1.50;;;16.20;99.90;;;;;;5033203;28;20493;-68
2022/07/08 02:46:46;;;;;;;5.63;1.70;;;16.10;99.90;;;;;;5031555;28;20570;-69
2022/07/08 02:49:13;;;;;;;2.23;1.27;;;16.00;99.90;;;;;;5035321;28;20463;-70
2022/07/08 02:51:40;;;;;;;2.80;1.70;;;16.00;99.90;;;;;;5024194;28;20841;-70
2022/07/08 02:54:07;;;;;;;4.13;1.93;;;16.00;99.90;;;;;;5034918;28;20586;-69
2022/07/08 02:56:35;;;;;;;3.57;1.70;;;16.10;99.90;;;;;;5022534;28;20460;-69
2022/07/08 02:59:03;;;;;;;3.83;1.77;;;16.20;99.90;;;;;;5024255;28;20547;-69
2022/07/08 03:01:30;;;;;;;3.20;1.60;;;16.10;99.90;;;;;;5033095;28;20469;-69
2022/07/08 03:03:59;;;;;;;7.07;3.63;;;16.30;99.90;;;;;;5029907;28;20562;-70
2022/07/08 03:06:26;;;;;;;5.17;1.43;;;16.10;99.90;;;;;;5034799;28;20494;-69
2022/07/08 03:08:52;;;;;;;5.57;2.07;;;16.10;99.90;;;;;;5025853;28;20810;-70
2022/07/08 03:11:20;;;;;;;1.83;1.53;;;16.10;99.90;;;;;;5028447;28;20468;-68
2022/07/08 03:13:47;;;;;;;6.43;1.73;;;16.00;99.90;;;;;;5026952;28;20491;-69
2022/07/08 03:16:14;;;;;;;4.57;1.83;;;15.90;99.90;;;;;;5026950;28;20480;-69
2022/07/08 03:18:41;;;;;;;2.50;1.37;;;15.90;99.90;;;;;;5031895;28;20467;-69
2022/07/08 03:21:09;;;;;;;2.57;1.70;;;15.90;99.90;;;;;;5022748;28;20456;-69
2022/07/08 03:23:36;;;;;;;4.73;1.30;;;16.00;99.90;;;;;;5038359;28;20492;-69
2022/07/08 03:26:03;;;;;;;6.53;1.70;;;16.10;99.90;;;;;;5023475;28;20569;-69
2022/07/08 03:28:30;;;;;;;4.37;1.57;;;16.00;99.90;;;;;;5038109;28;20834;-68
2022/07/08 03:30:57;;;;;;;4.90;3.07;;;15.90;99.90;;;;;;5034428;28;20462;-69
2022/07/08 03:33:24;;;;;;;5.73;1.93;;;15.90;99.90;;;;;;5032424;28;20475;-69
2022/07/08 03:35:51;;;;;;;2.17;1.47;;;15.70;99.90;;;;;;5029591;28;20474;-69
2022/07/08 03:38:19;;;;;;;3.20;2.00;;;15.80;99.90;;;;;;5030356;28;20464;-69
2022/07/08 03:43:30;;;;;;;2.43;1.37;;;15.90;99.90;;;;;;5028213;28;20474;-69
2022/07/08 03:45:56;;;;;;;5.93;1.90;;;16.00;99.90;;;;;;5026414;28;20491;-69
2022/07/08 03:48:23;;;;;;;8.43;1.70;;;15.90;99.90;;;;;;5031557;28;20451;-68
2022/07/08 03:50:51;;;;;;;3.83;1.90;;;16.00;99.90;;;;;;5030218;28;20778;-69
2022/07/08 03:53:19;;;;;;;5.87;2.17;;;16.00;99.90;;;;;;5026992;28;20534;-69
2022/07/08 03:55:46;;;;;;;2.90;1.90;;;16.00;99.90;;;;;;5029402;28;20837;-69
2022/07/08 03:58:12;;;;;;;2.10;1.60;;;16.10;99.90;;;;;;5028485;28;20915;-69
2022/07/08 04:00:39;;;;;;;5.13;2.13;;;16.10;99.90;;;;;;5031662;28;20460;-68
2022/07/08 04:03:06;;;;;;;3.27;1.50;;;16.20;99.90;;;;;;5036537;28;20561;-68
2022/07/08 04:05:33;;;;;;;16.73;2.40;;;16.20;99.90;;;;;;5033043;28;20460;-69
2022/07/08 04:08:00;;;;;;;3.20;1.73;;;16.00;99.90;;;;;;5017546;28;20486;-68
2022/07/08 04:10:28;;;;;;;2.80;1.60;;;16.00;99.90;;;;;;5018239;28;20608;-68
2022/07/08 04:12:55;;;;;;;2.10;1.90;;;16.00;99.90;;;;;;5027206;28;20468;-69
2022/07/08 04:15:22;;;;;;;10.50;2.40;;;16.00;99.90;;;;;;5033812;28;20452;-68
2022/07/08 04:17:49;;;;;;;8.13;2.50;;;16.00;99.90;;;;;;5015223;28;20734;-67
2022/07/08 04:20:16;;;;;;;4.10;1.97;;;16.00;99.90;;;;;;5032545;28;20525;-69
2022/07/08 04:22:43;;;;;;;3.90;3.60;;;16.10;99.90;;;;;;5033945;28;20451;-68
2022/07/08 04:25:10;;;;;;;2.90;1.50;;;16.20;99.90;;;;;;5059236;22;20501;-70
2022/07/08 04:27:38;;;;;;;6.17;1.80;;;16.20;99.90;;;;;;5046833;28;20482;-70
2022/07/08 04:30:06;;;;;;;5.73;1.80;;;16.30;99.90;;;;;;5044096;28;21020;-70
2022/07/08 04:32:33;;;;;;;9.10;2.00;;;16.40;99.90;;;;;;5054602;28;20455;-71
2022/07/08 04:35:00;;;;;;;3.73;1.30;;;16.30;99.90;;;;;;5044099;28;21027;-73
2022/07/08 04:37:27;;;;;;;9.57;2.10;;;16.40;99.90;;;;;;5033556;28;20464;-69
2022/07/08 04:39:54;;;;;;;6.20;1.80;;;16.40;99.90;;;;;;5039992;28;20455;-69
2022/07/08 04:42:21;;;;;;;2.20;1.37;;;16.20;99.90;;;;;;5040013;28;20468;-69
2022/07/08 04:44:50;;;;;;;3.40;1.57;;;16.20;99.90;;;;;;5035521;28;20483;-69
2022/07/08 04:47:17;;;;;;;2.30;1.40;;;16.30;99.90;;;;;;5025086;28;20493;-69
2022/07/08 04:49:44;;;;;;;9.53;2.13;;;16.30;99.90;;;;;;5039535;28;20745;-69
2022/07/08 04:52:11;;;;;;;7.47;1.83;;;16.30;99.90;;;;;;5047847;28;20439;-69
2022/07/08 04:54:38;;;;;;;5.53;1.83;;;16.30;99.90;;;;;;5045764;28;20472;-69
2022/07/08 04:57:06;;;;;;;4.90;2.00;;;16.30;99.90;;;;;;5042247;28;20514;-69
2022/07/08 04:59:33;;;;;;;3.03;1.43;;;16.20;99.90;;;;;;5043007;28;20456;-69
2022/07/08 05:02:02;;;;;;;3.53;1.50;;;16.20;99.90;;;;;;5047050;28;20435;-69
2022/07/08 05:04:29;;;;;;;4.90;2.70;;;16.40;99.90;;;;;;5045023;28;20486;-69
2022/07/08 05:06:56;;;;;;;3.43;1.80;;;16.40;99.90;;;;;;5043263;28;20483;-69
2022/07/08 05:09:23;;;;;;;6.43;1.80;;;16.50;99.90;;;;;;5044993;28;20463;-69
2022/07/08 05:11:50;;;;;;;4.10;1.60;;;16.50;99.90;;;;;;5037277;28;20806;-69
2022/07/08 05:14:17;;;;;;;2.17;1.50;;;16.40;99.90;;;;;;5038481;28;20480;-70
2022/07/08 05:16:44;;;;;;;3.87;1.40;;;16.40;99.90;;;;;;5043094;28;20456;-69
2022/07/08 05:19:12;;;;;;;5.37;1.90;;;16.50;99.90;;;;;;5043811;28;20463;-71
2022/07/08 05:21:39;;;;;;;4.03;1.70;;;16.60;99.90;;;;;;5037786;28;20829;-70
2022/07/08 05:24:07;;;;;;;4.37;2.20;;;16.50;99.90;;;;;;5039115;28;20484;-70
2022/07/08 05:26:34;;;;;;;9.10;1.97;;;16.50;99.90;;;;;;5041379;28;20993;-70
2022/07/08 05:29:01;;;;;;;5.53;1.30;;;16.40;99.90;;;;;;5040974;28;20480;-70
2022/07/08 05:31:29;;;;;;;4.97;2.47;;;16.30;99.90;;;;;;5040654;28;20487;-70
2022/07/08 05:33:56;;;;;;;5.30;1.40;;;16.20;99.90;;;;;;5042116;28;20507;-70
2022/07/08 05:36:25;;;;;;;4.50;1.90;;;16.30;99.90;;;;;;5042622;28;20658;-70
2022/07/08 05:38:52;;;;;;;3.90;1.40;;;16.60;99.90;;;;;;5029878;28;20474;-70
2022/07/08 05:41:19;;;;;;;3.20;1.20;;;16.90;99.90;;;;;;5042232;28;20549;-70
2022/07/08 05:43:46;;;;;;;2.93;2.37;;;17.30;99.90;;;;;;5040236;28;21065;-71
2022/07/08 05:46:12;;;;;;;4.70;1.40;;;17.30;99.90;;;;;;5037474;28;20842;-70
2022/07/08 05:48:39;;;;;;;2.90;1.47;;;17.30;99.90;;;;;;5041670;28;21096;-71
2022/07/08 05:51:06;;;;;;;7.77;1.70;;;17.30;99.90;;;;;;5043244;28;20479;-68
2022/07/08 05:53:34;;;;;;;4.13;1.57;;;17.50;99.90;;;;;;5039150;28;20471;-71
2022/07/08 05:56:01;;;;;;;1.67;1.30;;;17.90;99.90;;;;;;5043776;28;20460;-68
2022/07/08 05:58:28;;;;;;;2.40;1.20;;;18.00;99.90;;;;;;5044180;28;20482;-69
2022/07/08 06:00:54;;;;;;;20.43;2.37;;;18.00;99.90;;;;;;5041837;28;23017;-69
2022/07/08 06:03:21;;;;;;;2.20;1.50;;;18.30;99.90;;;;;;5037499;28;20859;-69
2022/07/08 06:05:48;;;;;;;2.60;1.10;;;18.40;99.90;;;;;;5036617;28;20467;-69
2022/07/08 06:08:15;;;;;;;2.40;1.50;;;18.10;99.90;;;;;;5038750;28;21063;-69
2022/07/08 06:10:43;;;;;;;6.37;1.57;;;17.90;99.90;;;;;;5028363;28;20460;-70
2022/07/08 06:13:10;;;;;;;3.30;1.30;;;18.20;99.90;;;;;;5024318;28;20463;-70
2022/07/08 06:15:37;;;;;;;4.97;2.10;;;19.00;99.90;;;;;;5038866;28;20488;-70
2022/07/08 06:18:04;;;;;;;2.20;1.27;;;19.60;99.90;;;;;;5032033;28;20452;-69
2022/07/08 06:20:34;;;;;;;1.30;1.20;;;19.70;99.90;;;;;;5042358;28;20460;-73
2022/07/08 06:23:01;;;;;;;2.90;1.20;;;20.10;99.90;;;;;;5042401;28;20463;-70
2022/07/08 06:25:28;;;;;;;3.50;1.10;;;20.20;99.90;;;;;;5042842;28;20482;-69
2022/07/08 06:27:56;;;;;;;4.90;1.30;;;20.60;99.90;;;;;;5041710;28;20476;-70
2022/07/08 06:30:23;;;;;;;3.37;1.50;;;20.90;99.90;;;;;;5040744;28;20440;-70
2022/07/08 06:32:49;;;;;;;4.40;1.60;;;21.10;99.90;;;;;;5040091;28;20502;-70
2022/07/08 06:35:16;;;;;;;5.23;1.03;;;20.50;99.90;;;;;;5033494;28;20996;-69
2022/07/08 06:37:43;;;;;;;3.93;1.40;;;20.10;99.90;;;;;;5039406;28;20460;-70
2022/07/08 06:40:11;;;;;;;3.60;1.40;;;20.00;99.90;;;;;;5032092;28;20453;-70
2022/07/08 06:42:38;;;;;;;4.80;2.63;;;19.70;99.90;;;;;;5037700;28;20460;-70
2022/07/08 06:45:08;;;;;;;5.17;1.33;;;19.50;99.90;;;;;;5026001;28;20487;-69
2022/07/08 06:47:35;;;;;;;1.50;1.30;;;19.80;99.90;;;;;;5034061;28;21018;-70
2022/07/08 06:50:02;;;;;;;4.53;1.50;;;20.20;99.90;;;;;;5037842;28;20459;-69
2022/07/08 06:52:28;;;;;;;4.37;1.43;;;20.20;99.90;;;;;;5034385;28;21284;-70
2022/07/08 06:54:56;;;;;;;3.20;1.27;;;20.70;99.90;;;;;;5034965;28;20484;-70
2022/07/08 06:57:23;;;;;;;4.07;1.53;;;21.50;99.90;;;;;;5036749;28;20799;-70
2022/07/08 06:59:51;;;;;;;4.43;1.93;;;21.70;99.90;;;;;;5036055;28;20460;-70
2022/07/08 07:02:19;;;;;;;4.60;1.40;;;22.00;99.90;;;;;;5036302;28;20457;-70
2022/07/08 07:04:46;;;;;;;2.47;1.00;;;22.40;99.90;;;;;;5035955;28;20478;-71
2022/07/08 07:07:13;;;;;;;3.20;1.53;;;22.90;99.90;;;;;;5038313;28;20888;-72
2022/07/08 07:09:40;;;;;;;2.23;1.37;;;22.80;99.90;;;;;;5037575;28;20468;-70
2022/07/08 07:12:08;;;;;;;4.70;1.40;;;22.70;99.90;;;;;;5031457;28;20471;-70
2022/07/08 07:14:35;;;;;;;2.00;1.60;;;22.40;99.90;;;;;;5040899;28;20479;-71
2022/07/08 07:17:02;;;;;;;2.33;1.30;;;21.50;99.90;;;;;;5044032;28;21482;-71
2022/07/08 07:19:30;;;;;;;4.17;1.50;;;20.70;99.90;;;;;;5042725;28;20808;-70
2022/07/08 07:21:56;;;;;;;5.73;2.03;;;20.70;99.90;;;;;;5041215;28;20483;-71
2022/07/08 07:24:23;;;;;;;2.50;1.53;;;21.00;99.90;;;;;;5037299;28;20863;-71
2022/07/08 07:26:50;;;;;;;2.20;1.60;;;21.40;99.90;;;;;;5038299;28;20455;-71
2022/07/08 07:29:18;;;;;;;2.90;2.37;;;22.20;99.90;;;;;;5042608;28;20460;-71
2022/07/08 07:31:45;;;;;;;6.60;1.73;;;22.60;99.90;;;;;;5043445;28;20440;-70
2022/07/08 07:34:11;;;;;;;2.77;1.30;;;22.90;99.90;;;;;;5042767;28;20477;-71
2022/07/08 07:36:40;;;;;;;4.97;3.50;;;23.20;99.90;;;;;;5043987;28;20451;-69
2022/07/08 07:39:09;;;;;;;3.43;1.53;;;23.50;99.90;;;;;;5040744;28;20442;-71
2022/07/08 07:41:36;;;;;;;3.20;1.20;;;23.30;99.90;;;;;;5042225;28;20468;-71
2022/07/08 07:44:03;;;;;;;3.33;1.30;;;22.30;99.90;;;;;;5042703;28;20988;-71
2022/07/08 07:46:30;;;;;;;2.07;1.63;;;21.20;99.90;;;;;;5043763;28;20998;-71
2022/07/08 07:48:57;;;;;;;3.23;1.30;;;20.90;99.90;;;;;;5036889;28;20486;-71
2022/07/08 07:51:23;;;;;;;3.10;1.47;;;20.90;99.90;;;;;;5038673;28;20470;-71
2022/07/08 07:53:51;;;;;;;2.40;1.27;;;21.40;99.90;;;;;;5042186;28;20464;-71
2022/07/08 07:56:18;;;;;;;5.57;1.40;;;22.60;99.90;;;;;;5044677;28;20334;-71
2022/07/08 07:58:45;;;;;;;4.57;1.30;;;24.10;99.90;;;;;;5041024;28;20222;-71
2022/07/08 08:01:12;;;;;;;1.97;1.10;;;24.50;99.90;;;;;;5025207;28;20839;-69
2022/07/08 08:03:39;;;;;;;7.53;1.63;;;23.80;99.90;;;;;;5036148;28;20559;-71
2022/07/08 08:06:07;;;;;;;3.87;1.47;;;22.40;99.90;;;;;;5037203;28;20917;-71
2022/07/08 08:08:34;;;;;;;2.67;1.73;;;21.30;99.90;;;;;;5036191;28;20545;-71
2022/07/08 08:11:03;;;;;;;3.53;1.33;;;21.00;99.90;;;;;;5039965;28;20464;-69
2022/07/08 08:13:31;;;;;;;4.40;1.50;;;21.50;99.90;;;;;;5044050;28;20460;-69
2022/07/08 08:15:58;;;;;;;2.57;1.40;;;22.90;99.90;;;;;;5043507;28;20464;-71
2022/07/08 08:18:25;;;;;;;2.70;1.40;;;23.50;99.90;;;;;;5045053;28;20456;-71
2022/07/08 08:20:51;;;;;;;6.50;1.50;;;23.90;99.90;;;;;;5041314;28;20456;-72
2022/07/08 08:23:18;;;;;;;3.63;1.80;;;24.40;99.90;;;;;;5042015;28;20483;-72
2022/07/08 08:25:45;;;;;;;1.93;1.20;;;25.20;99.90;;;;;;5041659;28;20468;-71
2022/07/08 08:28:13;;;;;;;13.10;2.00;;;24.30;99.90;;;;;;5038537;28;20486;-71
2022/07/08 08:30:40;;;;;;;6.33;2.60;;;24.30;99.90;;;;;;5040830;28;20444;-71
2022/07/08 08:33:07;;;;;;;6.13;1.50;;;24.50;99.90;;;;;;5041125;28;20760;-69
2022/07/08 08:35:34;;;;;;;3.00;2.10;;;24.80;99.90;;;;;;5043527;28;20482;-69
2022/07/08 08:38:01;;;;;;;3.40;1.30;;;25.60;99.90;;;;;;5031844;28;20837;-69
2022/07/08 08:40:29;;;;;;;3.97;1.33;;;25.60;99.90;;;;;;5037375;28;20467;-69
2022/07/08 08:42:56;;;;;;;6.70;1.60;;;24.80;99.90;;;;;;5044397;28;20452;-69
2022/07/08 08:45:24;;;;;;;2.87;1.50;;;24.60;99.90;;;;;;5043659;28;20976;-68
2022/07/08 08:47:53;;;;;;;6.80;1.73;;;24.40;99.90;;;;;;5044420;28;20488;-69
2022/07/08 08:53:11;;;;;;;4.37;1.40;;;24.70;99.90;;;;;;5044024;28;20439;-70
2022/07/08 08:55:39;;;;;;;2.03;1.30;;;24.50;99.90;;;;;;5043485;28;20487;-70
2022/07/08 08:58:06;;;;;;;2.07;1.53;;;23.60;99.90;;;;;;5043724;28;21124;-69
2022/07/08 09:00:35;;;;;;;2.70;1.93;;;23.60;99.90;;;;;;5035712;28;20460;-70
2022/07/08 09:03:02;;;;;;;4.40;2.10;;;23.50;99.90;;;;;;5043571;28;20488;-69
2022/07/08 09:05:30;;;;;;;10.13;4.33;;;23.50;99.90;;;;;;5041633;28;20484;-70
2022/07/08 09:07:57;;;;;;;4.20;2.07;;;24.00;99.90;;;;;;5042298;28;20987;-69
2022/07/08 09:10:25;;;;;;;7.37;1.80;;;24.50;99.90;;;;;;5046991;28;20451;-69
2022/07/08 09:13:06;;;;;;;4.50;1.93;;;23.90;99.90;;;;;;5037917;28;20581;-70
2022/07/08 09:15:36;;;;;;;3.60;1.70;;;24.50;99.90;;;;;;5041689;28;20464;-70
2022/07/08 09:18:05;;;;;;;2.23;1.50;;;24.60;99.90;;;;;;5043177;28;20467;-70
2022/07/08 09:20:40;;;;;;;3.80;1.30;;;25.30;99.90;;;;;;5039858;28;20459;-69
2022/07/08 09:23:10;;;;;;;1.67;1.10;;;25.10;99.90;;;;;;5043394;28;20456;-70
2022/07/08 09:25:37;;;;;;;2.80;2.23;;;25.30;99.10;;;;;;5041026;28;20492;-70
2022/07/08 09:28:05;;;;;;;4.10;1.20;;;25.30;98.50;;;;;;5044090;28;20488;-69
2022/07/08 09:30:31;;;;;;;3.13;1.50;;;25.30;98.50;;;;;;5031143;28;20962;-70
2022/07/08 09:33:01;;;;;;;4.50;1.77;;;24.90;99.60;;;;;;5039577;28;20592;-70
2022/07/08 09:35:36;;;;;;;5.83;1.90;;;25.10;99.60;;;;;;5044058;28;20854;-70
2022/07/08 09:38:04;;;;;;;1.30;1.17;;;25.20;98.70;;;;;;5044339;28;20494;-70
2022/07/08 09:40:32;;;;;;;4.50;2.27;;;25.10;98.90;;;;;;5043260;28;20874;-70
2022/07/08 09:43:01;;;;;;;3.23;1.43;;;25.50;98.90;;;;;;5043441;28;20456;-70
2022/07/08 09:45:32;;;;;;;2.27;1.67;;;24.80;99.50;;;;;;5044980;28;20486;-70
2022/07/08 09:48:04;;;;;;;3.50;1.50;;;25.00;99.50;;;;;;5041125;28;20488;-70
2022/07/08 09:50:36;;;;;;;2.40;1.57;;;25.00;99.10;;;;;;5033293;28;20482;-69
2022/07/08 09:53:12;;;;;;;7.10;1.40;;;25.80;98.30;;;;;;5041113;28;20464;-70
2022/07/08 09:55:40;;;;;;;9.90;2.10;;;26.50;97.80;;;;;;5043518;28;20487;-70
2022/07/08 09:58:08;;;;;;;1.97;1.20;;;27.10;95.30;;;;;;5040972;28;20573;-70
2022/07/08 10:00:35;;;;;;;6.47;1.77;;;26.80;93.20;;;;;;5037380;28;20956;-70
2022/07/08 10:03:04;;;;;;;9.70;1.90;;;26.60;94.40;;;;;;5039514;28;20463;-70
2022/07/08 10:05:32;;;;;;;1.90;1.50;;;26.60;94.60;;;;;;5044930;28;20471;-70
2022/07/08 10:07:59;;;;;;;5.90;1.60;;;26.90;94.80;;;;;;5042237;28;20941;-70
2022/07/08 10:10:27;;;;;;;5.10;1.47;;;27.00;94.40;;;;;;5042893;28;20547;-69
2022/07/08 10:12:57;;;;;;;1.40;1.10;;;27.30;93.80;;;;;;5042442;28;20478;-70
2022/07/08 10:15:25;;;;;;;4.70;1.40;;;26.20;94.90;;;;;;5039457;28;20480;-69
2022/07/08 10:17:52;;;;;;;3.37;2.20;;;26.20;95.70;;;;;;5044804;28;20483;-70
2022/07/08 10:20:24;;;;;;;3.60;1.63;;;26.00;95.20;;;;;;5041583;28;20483;-70
2022/07/08 10:22:56;;;;;;;3.73;1.40;;;26.00;96.00;;;;;;5037371;28;20464;-70
2022/07/08 10:25:23;;;;;;;1.70;1.30;;;26.00;95.80;;;;;;5043785;28;20995;-69
2022/07/08 10:27:50;;;;;;;2.53;1.60;;;26.00;94.80;;;;;;5044805;28;20437;-70
2022/07/08 10:30:20;;;;;;;3.33;1.30;;;25.80;94.10;;;;;;5036679;28;20452;-70
2022/07/08 10:32:47;;;;;;;4.03;1.40;;;25.50;95.10;;;;;;5042075;28;20463;-70
2022/07/08 10:35:19;;;;;;;2.00;1.30;;;25.00;95.60;;;;;;5037552;28;20486;-70
2022/07/08 10:37:49;;;;;;;10.80;2.13;;;25.10;97.00;;;;;;5042255;28;20547;-69
2022/07/08 10:40:47;;;;;;;3.80;2.00;;;24.50;97.30;;;;;;5038324;28;20460;-69
2022/07/08 10:43:27;;;;;;;5.00;1.90;;;24.70;99.30;;;;;;5033732;28;21046;-70
2022/07/08 10:46:06;;;;;;;2.13;1.50;;;25.30;97.40;;;;;;5033195;28;20494;-69
2022/07/08 10:48:53;;;;;;;7.53;1.53;;;24.80;98.60;;;;;;5035655;28;20537;-69
2022/07/08 10:51:57;;;;;;;1.40;1.10;;;24.20;99.20;;;;;;5043178;28;20468;-70
2022/07/08 10:54:32;;;;;;;3.00;1.20;;;24.20;99.70;;;;;;5043023;28;20498;-70
2022/07/08 10:57:01;;;;;;;2.83;1.53;;;24.40;99.90;;;;;;5044855;28;20470;-69
2022/07/08 10:59:30;;;;;;;2.87;1.70;;;24.70;98.60;;;;;;5041018;28;20456;-70
2022/07/08 11:01:59;;;;;;;2.70;1.30;;;24.80;98.60;;;;;;5030162;28;20460;-70
2022/07/08 11:04:28;;;;;;;3.17;1.77;;;24.90;97.90;;;;;;5040102;28;20490;-70
2022/07/08 11:06:56;;;;;;;1.53;1.10;;;24.70;98.50;;;;;;5041983;28;20478;-69
2022/07/08 11:09:24;;;;;;;2.50;1.37;;;24.50;99.30;;;;;;5027034;28;20512;-70
2022/07/08 11:11:52;;;;;;;3.70;2.33;;;24.40;99.30;;;;;;5042587;28;20746;-69
2022/07/08 11:14:19;;;;;;;5.67;1.60;;;23.60;99.90;;;;;;5041007;28;20988;-71
2022/07/08 11:16:46;;;;;;;2.70;1.30;;;23.40;99.90;;;;;;5036999;28;20841;-70
2022/07/08 11:19:13;;;;;;;4.80;1.70;;;23.50;99.90;;;;;;5046983;23;20503;-68
2022/07/08 11:21:40;;;;;;;1.83;1.50;;;23.40;99.90;;;;;;5038655;28;20836;-67
2022/07/08 11:24:07;;;;;;;2.77;1.40;;;23.80;99.90;;;;;;5044283;28;20478;-68
2022/07/08 11:26:34;;;;;;;7.13;1.60;;;23.70;99.90;;;;;;5044206;28;20443;-68
2022/07/08 11:29:02;;;;;;;2.20;1.33;;;23.60;99.90;;;;;;5038529;28;20480;-67
2022/07/08 11:31:32;;;;;;;1.70;1.60;;;23.70;99.90;;;;;;5037964;28;20539;-68
2022/07/08 11:33:59;;;;;;;3.30;2.53;;;24.10;99.90;;;;;;5035261;28;20996;-67
2022/07/08 11:36:25;;;;;;;3.20;2.00;;;24.10;99.90;;;;;;5036964;28;20913;-67
2022/07/08 11:38:52;;;;;;;2.43;1.40;;;24.30;99.90;;;;;;5031247;28;20563;-68
2022/07/08 11:41:20;;;;;;;2.40;1.50;;;24.30;99.90;;;;;;5033775;28;20448;-67
2022/07/08 11:43:49;;;;;;;3.63;1.87;;;24.40;99.90;;;;;;5038113;28;20557;-67
2022/07/08 11:46:19;;;;;;;1.50;1.37;;;24.80;99.90;;;;;;5041420;28;20463;-67
2022/07/08 11:48:46;;;;;;;3.57;1.60;;;25.30;99.80;;;;;;5041913;28;20486;-67
2022/07/08 11:51:15;;;;;;;3.90;2.20;;;25.40;99.90;;;;;;5038328;28;20464;-68
2022/07/08 11:53:42;;;;;;;4.27;1.73;;;25.50;99.90;;;;;;5044251;28;20448;-68
2022/07/08 11:56:09;;;;;;;1.80;1.53;;;25.70;99.90;;;;;;5041843;28;20460;-67
2022/07/08 11:58:36;;;;;;;3.73;1.33;;;24.70;99.90;;;;;;5043323;28;20503;-68
2022/07/08 12:01:04;;;;;;;2.50;1.40;;;24.50;99.90;;;;;;5042447;28;20443;-69
2022/07/08 12:03:34;;;;;;;6.47;2.37;;;25.00;99.90;;;;;;5035967;28;20832;-69
2022/07/08 12:06:02;;;;;;;6.23;1.57;;;25.60;99.90;;;;;;5042812;28;20547;-68
2022/07/08 12:08:29;;;;;;;3.53;1.77;;;26.60;99.90;;;;;;5043090;28;20479;-67
2022/07/08 12:11:13;;;;;;;2.70;1.70;;;26.80;99.50;;;;;;5042934;28;20456;-68
2022/07/08 12:13:44;;;;;;;2.60;1.73;;;25.20;99.90;;;;;;5039014;28;20444;-68
2022/07/08 12:16:11;;;;;;;3.50;1.50;;;24.90;99.90;;;;;;5043198;28;20952;-69
2022/07/08 12:18:45;;;;;;;2.43;2.00;;;24.80;99.90;;;;;;5048072;28;20487;-68
2022/07/08 12:21:19;;;;;;;4.97;1.87;;;25.10;99.90;;;;;;5038569;28;20465;-68
2022/07/08 12:23:55;;;;;;;3.73;1.30;;;25.90;99.90;;;;;;5035369;28;20566;-68
2022/07/08 12:26:22;;;;;;;1.90;1.50;;;26.40;99.90;;;;;;5040825;28;20539;-69
2022/07/08 12:28:49;;;;;;;3.70;2.30;;;26.70;99.90;;;;;;5037805;28;20969;-69
2022/07/08 12:31:34;;;;;;;1.50;1.40;;;26.60;99.30;;;;;;5041585;28;21287;-68
2022/07/08 12:34:03;;;;;;;3.80;3.37;;;27.30;99.90;;;;;;5043180;28;20444;-69
2022/07/08 12:36:31;;;;;;;2.90;1.63;;;27.50;98.90;;;;;;5040544;28;20456;-69
2022/07/08 12:38:58;;;;;;;4.80;1.70;;;27.50;98.90;;;;;;5036548;28;20464;-68
2022/07/08 12:41:25;;;;;;;1.60;1.40;;;26.80;98.80;;;;;;5037885;28;20467;-68
2022/07/08 12:43:52;;;;;;;4.80;1.57;;;27.20;99.30;;;;;;5036949;28;20878;-68
2022/07/08 12:46:18;;;;;;;5.23;1.83;;;27.90;97.80;;;;;;5040452;28;20459;-68
2022/07/08 12:48:45;;;;;;;3.40;1.40;;;28.10;98.30;;;;;;5039021;28;20484;-72
2022/07/08 12:51:13;;;;;;;3.00;1.57;;;27.80;98.40;;;;;;5038679;28;20546;-68
2022/07/08 12:53:40;;;;;;;2.70;1.73;;;27.20;98.90;;;;;;5038299;28;20468;-66
2022/07/08 12:56:07;;;;;;;2.27;1.40;;;27.00;99.40;;;;;;5040772;28;20848;-67